createdAt,value
2018-02-21T00:00:25.853Z,50.91
2018-02-21T00:00:57.506Z,50.96
2018-02-21T00:01:29.158Z,51.01
2018-02-21T00:02:00.859Z,50.96
2018-02-21T00:02:32.522Z,51.16
2018-02-21T00:03:04.173Z,51.09
2018-02-21T00:03:35.866Z,51.09
2018-02-21T00:04:07.517Z,51.21
2018-02-21T00:04:39.170Z,51.49
2018-02-21T00:05:10.823Z,51.46
2018-02-21T00:05:42.473Z,51.44
2018-02-21T00:06:14.132Z,51.40
2018-02-21T00:06:45.782Z,51.40
2018-02-21T00:07:17.481Z,51.36
2018-02-21T00:07:49.139Z,51.67
2018-02-21T00:08:20.799Z,51.67
2018-02-21T00:08:52.454Z,51.58
2018-02-21T00:09:24.110Z,51.61
2018-02-21T00:09:55.785Z,51.83
2018-02-21T00:10:27.433Z,51.57
2018-02-21T00:10:59.088Z,51.83
2018-02-21T00:11:30.741Z,51.48
2018-02-21T00:12:02.395Z,51.70
2018-02-21T00:12:34.096Z,51.64
2018-02-21T00:13:05.746Z,51.43
2018-02-21T00:13:37.403Z,51.16
2018-02-21T00:14:09.058Z,51.29
2018-02-21T00:14:40.706Z,51.41
2018-02-21T00:15:12.358Z,51.58
2018-02-21T00:15:44.015Z,51.45
2018-02-21T00:16:15.670Z,51.35
2018-02-21T00:16:47.374Z,51.42
2018-02-21T00:17:19.026Z,51.33
2018-02-21T00:17:50.725Z,51.40
2018-02-21T00:18:22.379Z,51.41
2018-02-21T00:18:54.039Z,51.35
2018-02-21T00:19:25.703Z,51.45
2018-02-21T00:19:57.355Z,51.43
2018-02-21T00:20:29.006Z,51.44
2018-02-21T00:21:00.658Z,51.50
2018-02-21T00:21:32.309Z,51.59
2018-02-21T00:22:03.973Z,51.57
2018-02-21T00:22:35.632Z,51.65
2018-02-21T00:23:07.367Z,51.59
2018-02-21T00:23:39.017Z,51.72
2018-02-21T00:24:10.678Z,51.59
2018-02-21T00:24:42.329Z,51.73
2018-02-21T00:25:13.982Z,51.80
2018-02-21T00:25:45.638Z,51.71
2018-02-21T00:26:17.290Z,51.76
2018-02-21T00:26:48.987Z,51.76
2018-02-21T00:27:20.701Z,51.75
2018-02-21T00:27:52.353Z,51.97
2018-02-21T00:28:24.070Z,51.92
2018-02-21T00:28:55.726Z,52.08
2018-02-21T00:29:27.378Z,51.99
2018-02-21T00:29:59.032Z,52.19
2018-02-21T00:30:30.685Z,52.23
2018-02-21T00:31:02.342Z,52.17
2018-02-21T00:31:33.994Z,52.26
2018-02-21T00:32:05.648Z,52.41
2018-02-21T00:32:37.302Z,52.36
2018-02-21T00:33:08.954Z,52.44
2018-02-21T00:33:40.661Z,52.30
2018-02-21T00:34:12.309Z,52.24
2018-02-21T00:34:43.958Z,52.42
2018-02-21T00:35:15.735Z,52.36
2018-02-21T00:35:47.390Z,52.45
2018-02-21T00:36:19.043Z,52.59
2018-02-21T00:36:50.731Z,52.60
2018-02-21T00:37:22.390Z,52.81
2018-02-21T00:37:54.047Z,52.64
2018-02-21T00:38:25.698Z,52.86
2018-02-21T00:38:57.398Z,52.83
2018-02-21T00:39:29.055Z,52.79
2018-02-21T00:40:00.726Z,52.96
2018-02-21T00:40:32.378Z,52.89
2018-02-21T00:41:04.073Z,52.97
2018-02-21T00:41:35.725Z,53.23
2018-02-21T00:42:07.378Z,53.34
2018-02-21T00:42:39.034Z,53.39
2018-02-21T00:43:10.686Z,53.43
2018-02-21T00:43:42.343Z,53.41
2018-02-21T00:44:14.042Z,53.29
2018-02-21T00:44:45.698Z,53.38
2018-02-21T00:45:17.354Z,53.55
2018-02-21T00:45:49.006Z,53.51
2018-02-21T00:46:20.654Z,53.68
2018-02-21T00:46:52.314Z,53.59
2018-02-21T00:47:23.961Z,53.92
2018-02-21T00:47:55.611Z,54.04
2018-02-21T00:48:27.261Z,54.05
2018-02-21T00:48:58.914Z,53.99
2018-02-21T00:49:30.618Z,54.38
2018-02-21T00:50:02.270Z,54.22
2018-02-21T00:50:33.926Z,54.30
2018-02-21T00:51:05.577Z,54.44
2018-02-21T00:51:37.225Z,54.71
2018-02-21T00:52:08.912Z,54.60
2018-02-21T00:52:40.569Z,54.36
2018-02-21T00:53:12.217Z,54.57
2018-02-21T00:53:43.872Z,54.53
2018-02-21T00:54:15.523Z,54.79
2018-02-21T00:54:47.223Z,54.74
2018-02-21T00:55:18.890Z,54.95
2018-02-21T00:55:50.541Z,55.26
2018-02-21T00:56:22.194Z,55.14
2018-02-21T00:56:53.850Z,55.40
2018-02-21T00:57:25.506Z,55.11
2018-02-21T00:57:57.159Z,55.16
2018-02-21T00:58:28.813Z,55.54
2018-02-21T00:59:00.471Z,55.12
2018-02-21T00:59:32.122Z,55.20
2018-02-21T01:00:03.829Z,55.16
2018-02-21T01:00:35.477Z,55.35
2018-02-21T01:01:07.129Z,55.34
2018-02-21T01:01:38.782Z,55.78
2018-02-21T01:02:10.434Z,55.59
2018-02-21T01:02:42.086Z,55.67
2018-02-21T01:03:13.736Z,55.77
2018-02-21T01:03:45.391Z,55.85
2018-02-21T01:04:17.046Z,55.79
2018-02-21T01:04:48.702Z,55.78
2018-02-21T01:05:20.405Z,55.90
2018-02-21T01:05:52.058Z,55.96
2018-02-21T01:06:23.715Z,55.95
2018-02-21T01:06:55.368Z,55.89
2018-02-21T01:07:27.018Z,56.22
2018-02-21T01:07:58.672Z,56.28
2018-02-21T01:08:30.334Z,56.25
2018-02-21T01:09:01.981Z,56.18
2018-02-21T01:09:33.633Z,56.33
2018-02-21T01:10:05.282Z,56.11
2018-02-21T01:10:36.992Z,56.21
2018-02-21T01:11:08.642Z,56.29
2018-02-21T01:11:40.297Z,56.20
2018-02-21T01:12:11.945Z,56.16
2018-02-21T01:12:43.597Z,56.53
2018-02-21T01:13:15.298Z,56.53
2018-02-21T01:13:47.026Z,56.29
2018-02-21T01:14:18.678Z,56.94
2018-02-21T01:14:50.330Z,56.37
2018-02-21T01:15:21.990Z,56.56
2018-02-21T01:15:53.695Z,56.44
2018-02-21T01:16:25.350Z,56.50
2018-02-21T01:16:57.008Z,56.61
2018-02-21T01:17:28.658Z,56.76
2018-02-21T01:18:00.310Z,56.44
2018-02-21T01:18:31.963Z,56.49
2018-02-21T01:19:03.656Z,56.43
2018-02-21T01:19:35.310Z,56.57
2018-02-21T01:20:06.962Z,56.74
2018-02-21T01:20:38.621Z,56.80
2018-02-21T01:21:10.321Z,56.69
2018-02-21T01:21:41.970Z,56.69
2018-02-21T01:22:13.627Z,56.72
2018-02-21T01:22:45.278Z,56.47
2018-02-21T01:23:16.930Z,56.35
2018-02-21T01:23:48.582Z,56.40
2018-02-21T01:24:20.237Z,56.30
2018-02-21T01:24:51.885Z,56.17
2018-02-21T01:25:23.552Z,56.53
2018-02-21T01:25:55.207Z,56.49
2018-02-21T01:26:26.926Z,56.15
2018-02-21T01:26:58.578Z,56.13
2018-02-21T01:27:30.291Z,56.07
2018-02-21T01:28:01.945Z,55.67
2018-02-21T01:28:33.603Z,55.86
2018-02-21T01:29:05.254Z,56.15
2018-02-21T01:29:36.910Z,55.90
2018-02-21T01:30:08.561Z,55.82
2018-02-21T01:30:40.214Z,55.99
2018-02-21T01:31:11.870Z,55.76
2018-02-21T01:31:43.574Z,55.78
2018-02-21T01:32:15.227Z,55.81
2018-02-21T01:32:46.879Z,55.89
2018-02-21T01:33:18.530Z,55.71
2018-02-21T01:33:50.182Z,55.77
2018-02-21T01:34:21.834Z,55.93
2018-02-21T01:34:53.491Z,55.95
2018-02-21T01:35:25.219Z,55.63
2018-02-21T01:35:56.874Z,55.59
2018-02-21T01:36:28.527Z,55.58
2018-02-21T01:37:00.227Z,55.52
2018-02-21T01:37:31.901Z,55.70
2018-02-21T01:38:03.549Z,55.52
2018-02-21T01:38:35.205Z,55.56
2018-02-21T01:39:06.858Z,55.65
2018-02-21T01:39:38.510Z,55.92
2018-02-21T01:40:10.216Z,55.73
2018-02-21T01:40:41.865Z,55.75
2018-02-21T01:41:13.513Z,56.04
2018-02-21T01:41:45.166Z,56.12
2018-02-21T01:42:16.865Z,55.79
2018-02-21T01:42:48.521Z,56.02
2018-02-21T01:43:20.174Z,55.91
2018-02-21T01:43:51.829Z,56.09
2018-02-21T01:44:23.594Z,56.23
2018-02-21T01:44:55.250Z,56.03
2018-02-21T01:45:26.901Z,56.17
2018-02-21T01:45:58.658Z,56.54
2018-02-21T01:46:30.313Z,56.39
2018-02-21T01:47:01.970Z,56.41
2018-02-21T01:47:33.626Z,56.71
2018-02-21T01:48:05.277Z,56.57
2018-02-21T01:48:36.930Z,56.53
2018-02-21T01:49:08.629Z,56.48
2018-02-21T01:49:40.286Z,56.75
2018-02-21T01:50:11.934Z,56.73
2018-02-21T01:50:43.585Z,56.79
2018-02-21T01:51:15.242Z,56.97
2018-02-21T01:51:46.902Z,56.57
2018-02-21T01:52:18.554Z,56.87
2018-02-21T01:52:50.266Z,56.47
2018-02-21T01:53:21.918Z,56.56
2018-02-21T01:53:53.570Z,56.48
2018-02-21T01:54:25.234Z,56.68
2018-02-21T01:54:56.889Z,56.95
2018-02-21T01:55:28.537Z,56.98
2018-02-21T01:56:00.186Z,57.01
2018-02-21T01:56:31.838Z,57.22
2018-02-21T01:57:03.514Z,57.14
2018-02-21T01:57:35.166Z,57.08
2018-02-21T01:58:06.873Z,56.97
2018-02-21T01:58:38.526Z,57.37
2018-02-21T01:59:10.203Z,57.20
2018-02-21T01:59:41.854Z,57.27
2018-02-21T02:00:13.507Z,57.33
2018-02-21T02:00:45.161Z,57.16
2018-02-21T02:01:16.813Z,57.32
2018-02-21T02:01:48.466Z,57.38
2018-02-21T02:02:20.126Z,57.32
2018-02-21T02:02:51.778Z,57.27
2018-02-21T02:03:23.482Z,57.22
2018-02-21T02:03:55.133Z,57.28
2018-02-21T02:04:26.786Z,57.41
2018-02-21T02:04:58.438Z,57.34
2018-02-21T02:05:30.086Z,57.56
2018-02-21T02:06:01.738Z,57.58
2018-02-21T02:06:33.389Z,57.38
2018-02-21T02:07:05.038Z,57.42
2018-02-21T02:07:36.753Z,57.59
2018-02-21T02:08:08.475Z,57.69
2018-02-21T02:08:40.178Z,57.94
2018-02-21T02:09:11.830Z,57.67
2018-02-21T02:09:43.486Z,57.85
2018-02-21T02:10:15.165Z,57.62
2018-02-21T02:10:46.818Z,58.00
2018-02-21T02:11:18.549Z,57.92
2018-02-21T02:11:50.202Z,58.12
2018-02-21T02:12:21.858Z,58.21
2018-02-21T02:12:53.509Z,57.88
2018-02-21T02:13:25.161Z,57.89
2018-02-21T02:13:56.870Z,57.88
2018-02-21T02:14:28.521Z,58.29
2018-02-21T02:15:00.174Z,57.75
2018-02-21T02:15:31.825Z,57.81
2018-02-21T02:16:03.474Z,57.95
2018-02-21T02:16:35.129Z,57.79
2018-02-21T02:17:06.787Z,57.97
2018-02-21T02:17:38.438Z,57.88
2018-02-21T02:18:10.090Z,58.14
2018-02-21T02:18:41.742Z,58.22
2018-02-21T02:19:13.450Z,58.09
2018-02-21T02:19:45.102Z,58.00
2018-02-21T02:20:16.753Z,58.40
2018-02-21T02:20:48.402Z,58.35
2018-02-21T02:21:20.055Z,58.30
2018-02-21T02:21:51.742Z,58.15
2018-02-21T02:22:23.394Z,58.13
2018-02-21T02:22:55.046Z,58.67
2018-02-21T02:23:26.697Z,58.05
2018-02-21T02:23:58.349Z,58.23
2018-02-21T02:24:29.999Z,58.16
2018-02-21T02:25:01.650Z,58.30
2018-02-21T02:25:33.307Z,58.46
2018-02-21T02:26:04.963Z,58.41
2018-02-21T02:26:36.614Z,58.57
2018-02-21T02:27:08.266Z,58.49
2018-02-21T02:27:39.918Z,58.26
2018-02-21T02:28:11.570Z,58.13
2018-02-21T02:28:43.223Z,58.28
2018-02-21T02:29:14.876Z,58.23
2018-02-21T02:29:46.577Z,58.25
2018-02-21T02:30:18.230Z,58.44
2018-02-21T02:30:49.880Z,58.24
2018-02-21T02:31:21.538Z,58.37
2018-02-21T02:31:53.194Z,58.11
2018-02-21T02:32:24.851Z,58.11
2018-02-21T02:32:56.511Z,58.05
2018-02-21T02:33:28.171Z,58.21
2018-02-21T02:33:59.836Z,58.20
2018-02-21T02:34:31.567Z,58.28
2018-02-21T02:35:03.292Z,58.10
2018-02-21T02:35:34.954Z,57.98
2018-02-21T02:36:06.606Z,58.14
2018-02-21T02:36:38.267Z,57.97
2018-02-21T02:37:09.918Z,58.54
2018-02-21T02:37:41.574Z,58.60
2018-02-21T02:38:13.226Z,58.24
2018-02-21T02:38:44.873Z,58.10
2018-02-21T02:39:16.526Z,58.17
2018-02-21T02:39:48.181Z,57.86
2018-02-21T02:40:19.882Z,58.00
2018-02-21T02:40:51.540Z,57.90
2018-02-21T02:41:23.250Z,58.06
2018-02-21T02:41:54.919Z,57.79
2018-02-21T02:42:26.588Z,58.06
2018-02-21T02:42:58.242Z,57.65
2018-02-21T02:43:29.889Z,57.96
2018-02-21T02:44:01.562Z,57.80
2018-02-21T02:44:33.214Z,57.84
2018-02-21T02:45:04.870Z,57.69
2018-02-21T02:45:36.574Z,57.64
2018-02-21T02:46:08.226Z,57.54
2018-02-21T02:46:39.878Z,57.53
2018-02-21T02:47:11.529Z,57.42
2018-02-21T02:47:43.186Z,57.39
2018-02-21T02:48:14.842Z,57.38
2018-02-21T02:48:46.503Z,57.64
2018-02-21T02:49:18.154Z,57.58
2018-02-21T02:49:49.806Z,57.45
2018-02-21T02:50:21.459Z,57.41
2018-02-21T02:50:53.158Z,57.35
2018-02-21T02:51:24.816Z,57.40
2018-02-21T02:51:56.482Z,57.48
2018-02-21T02:52:28.134Z,57.42
2018-02-21T02:52:59.790Z,57.57
2018-02-21T02:53:31.446Z,57.36
2018-02-21T02:54:03.105Z,57.28
2018-02-21T02:54:34.762Z,57.21
2018-02-21T02:55:06.414Z,57.20
2018-02-21T02:55:38.072Z,57.42
2018-02-21T02:56:09.775Z,57.25
2018-02-21T02:56:41.431Z,57.42
2018-02-21T02:57:13.090Z,57.30
2018-02-21T02:57:44.741Z,57.36
2018-02-21T02:58:16.398Z,57.32
2018-02-21T02:58:48.060Z,57.37
2018-02-21T02:59:19.710Z,57.21
2018-02-21T02:59:51.364Z,57.13
2018-02-21T03:00:23.018Z,57.31
2018-02-21T03:00:54.675Z,57.28
2018-02-21T03:01:26.388Z,57.23
2018-02-21T03:01:58.037Z,57.24
2018-02-21T03:02:29.727Z,57.22
2018-02-21T03:03:01.379Z,57.25
2018-02-21T03:03:33.031Z,57.18
2018-02-21T03:04:04.691Z,57.25
2018-02-21T03:04:36.354Z,57.22
2018-02-21T03:05:08.006Z,57.16
2018-02-21T03:05:39.668Z,57.07
2018-02-21T03:06:11.322Z,57.09
2018-02-21T03:06:42.983Z,57.17
2018-02-21T03:07:14.638Z,57.10
2018-02-21T03:07:46.289Z,57.03
2018-02-21T03:08:17.942Z,57.17
2018-02-21T03:08:49.600Z,56.92
2018-02-21T03:09:21.250Z,56.93
2018-02-21T03:09:52.902Z,57.00
2018-02-21T03:10:24.563Z,56.98
2018-02-21T03:10:56.214Z,56.92
2018-02-21T03:11:27.866Z,56.95
2018-02-21T03:11:59.569Z,56.99
2018-02-21T03:12:31.225Z,57.08
2018-02-21T03:13:02.882Z,56.88
2018-02-21T03:13:34.538Z,56.99
2018-02-21T03:14:06.194Z,56.69
2018-02-21T03:14:37.846Z,56.67
2018-02-21T03:15:09.502Z,56.53
2018-02-21T03:15:41.154Z,56.59
2018-02-21T03:16:12.806Z,56.69
2018-02-21T03:16:44.458Z,56.66
2018-02-21T03:17:16.158Z,56.69
2018-02-21T03:17:47.814Z,56.72
2018-02-21T03:18:19.465Z,56.64
2018-02-21T03:18:51.122Z,56.63
2018-02-21T03:19:22.769Z,56.64
2018-02-21T03:19:54.427Z,56.58
2018-02-21T03:20:26.078Z,56.66
2018-02-21T03:20:57.734Z,56.60
2018-02-21T03:21:29.385Z,56.72
2018-02-21T03:22:01.048Z,56.72
2018-02-21T03:22:32.753Z,56.82
2018-02-21T03:23:04.406Z,57.17
2018-02-21T03:23:36.058Z,57.19
2018-02-21T03:24:07.709Z,57.13
2018-02-21T03:24:39.366Z,57.28
2018-02-21T03:25:11.018Z,57.40
2018-02-21T03:25:42.675Z,57.46
2018-02-21T03:26:14.330Z,57.50
2018-02-21T03:26:45.982Z,57.41
2018-02-21T03:27:17.638Z,57.42
2018-02-21T03:27:49.339Z,57.36
2018-02-21T03:28:20.990Z,57.21
2018-02-21T03:28:52.642Z,57.25
2018-02-21T03:29:24.298Z,57.30
2018-02-21T03:29:55.950Z,57.24
2018-02-21T03:30:27.607Z,57.14
2018-02-21T03:30:59.263Z,57.29
2018-02-21T03:31:30.919Z,57.14
2018-02-21T03:32:02.570Z,57.02
2018-02-21T03:32:34.222Z,57.17
2018-02-21T03:33:05.933Z,57.21
2018-02-21T03:33:37.590Z,57.29
2018-02-21T03:34:09.241Z,57.48
2018-02-21T03:34:40.890Z,57.26
2018-02-21T03:35:12.542Z,57.37
2018-02-21T03:35:44.194Z,57.51
2018-02-21T03:36:15.849Z,57.33
2018-02-21T03:36:47.497Z,57.42
2018-02-21T03:37:19.154Z,57.35
2018-02-21T03:37:50.801Z,57.29
2018-02-21T03:38:22.517Z,57.29
2018-02-21T03:38:54.169Z,57.39
2018-02-21T03:39:25.829Z,57.46
2018-02-21T03:39:57.481Z,57.35
2018-02-21T03:40:29.137Z,57.16
2018-02-21T03:41:00.790Z,57.26
2018-02-21T03:41:32.442Z,57.13
2018-02-21T03:42:04.104Z,57.10
2018-02-21T03:42:35.758Z,57.23
2018-02-21T03:43:07.410Z,57.11
2018-02-21T03:43:39.061Z,56.95
2018-02-21T03:44:10.713Z,57.04
2018-02-21T03:44:42.366Z,56.90
2018-02-21T03:45:14.018Z,57.12
2018-02-21T03:45:45.666Z,57.06
2018-02-21T03:46:17.317Z,56.98
2018-02-21T03:46:48.966Z,57.01
2018-02-21T03:47:20.618Z,57.15
2018-02-21T03:47:52.270Z,56.88
2018-02-21T03:48:23.930Z,56.98
2018-02-21T03:48:55.635Z,57.01
2018-02-21T03:49:27.293Z,57.04
2018-02-21T03:49:58.946Z,57.13
2018-02-21T03:50:30.600Z,56.97
2018-02-21T03:51:02.258Z,57.03
2018-02-21T03:51:33.910Z,56.95
2018-02-21T03:52:05.562Z,57.03
2018-02-21T03:52:37.216Z,56.99
2018-02-21T03:53:08.875Z,57.11
2018-02-21T03:53:40.526Z,57.20
2018-02-21T03:54:12.230Z,57.02
2018-02-21T03:54:43.881Z,56.87
2018-02-21T03:55:15.529Z,57.42
2018-02-21T03:55:47.187Z,57.13
2018-02-21T03:56:18.841Z,56.98
2018-02-21T03:56:50.493Z,57.10
2018-02-21T03:57:22.146Z,57.05
2018-02-21T03:57:53.801Z,57.04
2018-02-21T03:58:25.450Z,57.15
2018-02-21T03:58:57.106Z,57.26
2018-02-21T03:59:28.834Z,56.96
2018-02-21T04:00:00.489Z,56.93
2018-02-21T04:00:32.142Z,56.97
2018-02-21T04:01:03.838Z,57.12
2018-02-21T04:01:35.485Z,57.41
2018-02-21T04:02:07.134Z,57.17
2018-02-21T04:02:38.785Z,57.14
2018-02-21T04:03:10.434Z,57.04
2018-02-21T04:03:42.087Z,57.03
2018-02-21T04:04:13.738Z,57.02
2018-02-21T04:04:45.437Z,57.07
2018-02-21T04:05:17.094Z,56.97
2018-02-21T04:05:48.750Z,56.94
2018-02-21T04:06:20.460Z,56.84
2018-02-21T04:06:52.119Z,56.87
2018-02-21T04:07:23.769Z,56.80
2018-02-21T04:07:55.425Z,57.17
2018-02-21T04:08:27.074Z,56.81
2018-02-21T04:08:58.726Z,56.97
2018-02-21T04:09:30.382Z,56.95
2018-02-21T04:10:02.114Z,56.92
2018-02-21T04:10:33.770Z,56.81
2018-02-21T04:11:05.422Z,56.79
2018-02-21T04:11:37.074Z,56.90
2018-02-21T04:12:08.725Z,56.82
2018-02-21T04:12:40.373Z,56.67
2018-02-21T04:13:12.026Z,56.67
2018-02-21T04:13:43.678Z,56.70
2018-02-21T04:14:15.325Z,56.69
2018-02-21T04:14:46.973Z,56.73
2018-02-21T04:15:18.681Z,56.53
2018-02-21T04:15:50.338Z,56.65
2018-02-21T04:16:21.985Z,56.49
2018-02-21T04:16:53.638Z,56.48
2018-02-21T04:17:25.289Z,56.59
2018-02-21T04:17:56.942Z,56.80
2018-02-21T04:18:28.597Z,56.57
2018-02-21T04:19:00.382Z,56.68
2018-02-21T04:19:32.034Z,56.59
2018-02-21T04:20:03.686Z,56.83
2018-02-21T04:20:35.340Z,57.00
2018-02-21T04:21:06.990Z,56.78
2018-02-21T04:21:38.697Z,56.73
2018-02-21T04:22:10.345Z,56.94
2018-02-21T04:22:42.002Z,56.64
2018-02-21T04:23:13.657Z,56.67
2018-02-21T04:23:45.309Z,56.61
2018-02-21T04:24:16.958Z,56.67
2018-02-21T04:24:48.609Z,56.57
2018-02-21T04:25:20.257Z,56.71
2018-02-21T04:25:51.966Z,56.79
2018-02-21T04:26:23.614Z,56.68
2018-02-21T04:26:55.265Z,56.65
2018-02-21T04:27:26.918Z,56.82
2018-02-21T04:27:58.571Z,56.71
2018-02-21T04:28:30.221Z,56.70
2018-02-21T04:29:01.870Z,56.69
2018-02-21T04:29:33.521Z,56.79
2018-02-21T04:30:05.169Z,56.60
2018-02-21T04:30:36.823Z,56.51
2018-02-21T04:31:08.526Z,56.45
2018-02-21T04:31:40.179Z,56.52
2018-02-21T04:32:11.838Z,56.55
2018-02-21T04:32:43.489Z,56.66
2018-02-21T04:33:15.137Z,56.58
2018-02-21T04:33:46.794Z,56.60
2018-02-21T04:34:18.442Z,56.69
2018-02-21T04:34:50.102Z,56.75
2018-02-21T04:35:21.754Z,57.05
2018-02-21T04:35:53.405Z,56.84
2018-02-21T04:36:25.122Z,57.01
2018-02-21T04:36:56.774Z,56.78
2018-02-21T04:37:28.425Z,56.72
2018-02-21T04:38:00.079Z,56.92
2018-02-21T04:38:31.738Z,56.98
2018-02-21T04:39:03.418Z,56.91
2018-02-21T04:39:35.069Z,56.86
2018-02-21T04:40:06.753Z,56.89
2018-02-21T04:40:38.422Z,56.97
2018-02-21T04:41:10.090Z,56.89
2018-02-21T04:41:41.802Z,56.86
2018-02-21T04:42:13.458Z,57.03
2018-02-21T04:42:45.110Z,57.11
2018-02-21T04:43:16.763Z,57.07
2018-02-21T04:43:48.413Z,57.09
2018-02-21T04:44:20.061Z,57.08
2018-02-21T04:44:51.750Z,57.00
2018-02-21T04:45:23.405Z,56.81
2018-02-21T04:45:55.088Z,56.88
2018-02-21T04:46:26.754Z,56.88
2018-02-21T04:46:58.457Z,56.96
2018-02-21T04:47:30.116Z,57.04
2018-02-21T04:48:01.774Z,56.92
2018-02-21T04:48:33.433Z,57.19
2018-02-21T04:49:05.085Z,57.05
2018-02-21T04:49:36.741Z,57.03
2018-02-21T04:50:08.394Z,56.84
2018-02-21T04:50:40.054Z,57.05
2018-02-21T04:51:11.705Z,57.01
2018-02-21T04:51:43.362Z,57.07
2018-02-21T04:52:15.066Z,57.28
2018-02-21T04:52:46.718Z,57.18
2018-02-21T04:53:18.386Z,57.09
2018-02-21T04:53:50.046Z,57.05
2018-02-21T04:54:23.506Z,57.10
2018-02-21T04:55:11.002Z,57.19
2018-02-21T04:55:43.643Z,57.21
2018-02-21T04:56:30.998Z,57.17
2018-02-21T04:57:20.574Z,57.16
2018-02-21T04:58:12.090Z,57.23
2018-02-21T04:58:46.521Z,57.24
2018-02-21T04:59:21.706Z,57.14
2018-02-21T04:59:57.010Z,57.08
2018-02-21T05:00:28.682Z,57.10
2018-02-21T05:01:00.358Z,57.05
2018-02-21T05:01:32.022Z,57.04
2018-02-21T05:02:03.689Z,57.04
2018-02-21T05:02:35.365Z,57.07
2018-02-21T05:03:07.020Z,57.26
2018-02-21T05:03:38.683Z,57.17
2018-02-21T05:04:10.333Z,57.27
2018-02-21T05:04:41.985Z,57.23
2018-02-21T05:05:13.635Z,57.26
2018-02-21T05:05:45.285Z,57.27
2018-02-21T05:06:16.942Z,57.28
2018-02-21T05:06:48.674Z,57.38
2018-02-21T05:07:20.326Z,57.30
2018-02-21T05:07:52.025Z,57.42
2018-02-21T05:08:23.846Z,57.66
2018-02-21T05:08:55.497Z,57.57
2018-02-21T05:09:27.153Z,57.61
2018-02-21T05:09:58.806Z,57.57
2018-02-21T05:10:30.458Z,57.51
2018-02-21T05:11:02.114Z,57.66
2018-02-21T05:11:33.766Z,57.65
2018-02-21T05:12:05.418Z,57.82
2018-02-21T05:12:37.074Z,57.87
2018-02-21T05:13:08.780Z,57.85
2018-02-21T05:13:40.433Z,57.94
2018-02-21T05:14:12.086Z,57.93
2018-02-21T05:14:43.732Z,57.93
2018-02-21T05:15:15.384Z,57.93
2018-02-21T05:15:47.033Z,57.99
2018-02-21T05:16:18.682Z,57.89
2018-02-21T05:16:50.334Z,57.96
2018-02-21T05:17:21.985Z,57.88
2018-02-21T05:17:53.642Z,57.87
2018-02-21T05:18:25.346Z,57.93
2018-02-21T05:18:56.998Z,57.69
2018-02-21T05:19:28.649Z,57.69
2018-02-21T05:20:00.301Z,57.60
2018-02-21T05:20:31.949Z,57.51
2018-02-21T05:21:03.599Z,57.49
2018-02-21T05:21:35.255Z,57.47
2018-02-21T05:22:06.913Z,57.47
2018-02-21T05:22:38.565Z,57.38
2018-02-21T05:23:10.217Z,57.43
2018-02-21T05:23:41.917Z,57.16
2018-02-21T05:24:13.574Z,57.18
2018-02-21T05:24:45.230Z,57.22
2018-02-21T05:25:16.882Z,57.22
2018-02-21T05:25:48.538Z,57.40
2018-02-21T05:26:20.194Z,57.28
2018-02-21T05:26:51.849Z,57.31
2018-02-21T05:27:23.505Z,57.31
2018-02-21T05:27:55.251Z,57.35
2018-02-21T05:28:26.901Z,57.23
2018-02-21T05:28:58.606Z,57.21
2018-02-21T05:29:30.260Z,57.21
2018-02-21T05:30:01.913Z,57.17
2018-02-21T05:30:33.569Z,57.11
2018-02-21T05:31:05.225Z,57.02
2018-02-21T05:31:36.878Z,56.91
2018-02-21T05:32:08.535Z,56.90
2018-02-21T05:32:40.249Z,56.84
2018-02-21T05:33:11.910Z,56.85
2018-02-21T05:33:43.564Z,56.70
2018-02-21T05:34:15.269Z,56.68
2018-02-21T05:34:46.920Z,56.56
2018-02-21T05:35:18.573Z,56.60
2018-02-21T05:35:50.241Z,56.47
2018-02-21T05:36:21.906Z,56.57
2018-02-21T05:36:53.562Z,56.49
2018-02-21T05:37:25.213Z,56.48
2018-02-21T05:37:56.967Z,56.38
2018-02-21T05:38:28.617Z,56.38
2018-02-21T05:39:00.264Z,56.30
2018-02-21T05:39:31.919Z,56.28
2018-02-21T05:40:03.569Z,56.23
2018-02-21T05:40:35.226Z,56.21
2018-02-21T05:41:06.882Z,56.23
2018-02-21T05:41:38.534Z,56.23
2018-02-21T05:42:10.186Z,56.25
2018-02-21T05:42:41.837Z,56.29
2018-02-21T05:43:13.486Z,56.22
2018-02-21T05:43:45.138Z,56.21
2018-02-21T05:44:16.789Z,56.04
2018-02-21T05:44:48.492Z,55.92
2018-02-21T05:45:20.146Z,55.98
2018-02-21T05:45:51.798Z,56.07
2018-02-21T05:46:23.451Z,55.94
2018-02-21T05:46:55.102Z,55.89
2018-02-21T05:47:26.754Z,55.90
2018-02-21T05:47:58.411Z,55.87
2018-02-21T05:48:30.061Z,55.90
2018-02-21T05:49:01.731Z,55.87
2018-02-21T05:49:33.390Z,55.87
2018-02-21T05:50:05.104Z,55.97
2018-02-21T05:50:36.758Z,55.87
2018-02-21T05:51:08.410Z,55.88
2018-02-21T05:51:40.076Z,55.91
2018-02-21T05:52:11.730Z,55.91
2018-02-21T05:52:43.386Z,55.91
2018-02-21T05:53:15.045Z,56.07
2018-02-21T05:53:46.698Z,56.04
2018-02-21T05:54:18.350Z,56.14
2018-02-21T05:54:50.007Z,56.01
2018-02-21T05:55:21.714Z,56.35
2018-02-21T05:55:53.371Z,56.18
2018-02-21T05:56:25.027Z,56.21
2018-02-21T05:56:56.686Z,56.44
2018-02-21T05:57:28.378Z,56.36
2018-02-21T05:58:00.095Z,56.33
2018-02-21T05:58:31.746Z,56.35
2018-02-21T05:59:03.399Z,56.25
2018-02-21T05:59:35.050Z,56.58
2018-02-21T06:00:06.702Z,56.44
2018-02-21T06:00:38.403Z,56.53
2018-02-21T06:01:10.055Z,56.55
2018-02-21T06:01:41.705Z,56.41
2018-02-21T06:02:13.362Z,56.52
2018-02-21T06:02:45.018Z,56.54
2018-02-21T06:03:16.715Z,56.48
2018-02-21T06:03:48.374Z,56.45
2018-02-21T06:04:20.027Z,56.44
2018-02-21T06:04:51.678Z,56.53
2018-02-21T06:05:23.329Z,56.54
2018-02-21T06:05:55.039Z,56.49
2018-02-21T06:06:26.694Z,56.54
2018-02-21T06:06:58.354Z,56.58
2018-02-21T06:07:30.006Z,56.45
2018-02-21T06:08:01.662Z,56.54
2018-02-21T06:08:33.309Z,56.50
2018-02-21T06:09:04.966Z,56.42
2018-02-21T06:09:36.619Z,56.50
2018-02-21T06:10:08.274Z,56.49
2018-02-21T06:10:39.930Z,56.42
2018-02-21T06:11:11.631Z,56.50
2018-02-21T06:11:43.286Z,56.42
2018-02-21T06:12:14.937Z,56.59
2018-02-21T06:12:46.587Z,56.48
2018-02-21T06:13:18.238Z,56.48
2018-02-21T06:13:49.889Z,56.62
2018-02-21T06:14:21.538Z,56.72
2018-02-21T06:14:53.199Z,56.57
2018-02-21T06:15:24.849Z,56.64
2018-02-21T06:15:56.502Z,56.59
2018-02-21T06:16:28.210Z,56.80
2018-02-21T06:16:59.867Z,56.78
2018-02-21T06:17:31.525Z,56.72
2018-02-21T06:18:03.174Z,56.82
2018-02-21T06:18:34.880Z,56.96
2018-02-21T06:19:06.526Z,57.02
2018-02-21T06:19:38.178Z,57.13
2018-02-21T06:20:09.830Z,56.98
2018-02-21T06:20:41.481Z,57.36
2018-02-21T06:21:13.134Z,57.06
2018-02-21T06:21:44.837Z,57.13
2018-02-21T06:22:16.602Z,57.19
2018-02-21T06:22:48.262Z,57.31
2018-02-21T06:23:19.910Z,57.30
2018-02-21T06:23:51.562Z,57.35
2018-02-21T06:24:23.213Z,57.48
2018-02-21T06:24:54.897Z,57.28
2018-02-21T06:25:26.554Z,57.71
2018-02-21T06:25:58.255Z,57.52
2018-02-21T06:26:29.906Z,57.82
2018-02-21T06:27:01.622Z,57.56
2018-02-21T06:27:33.278Z,57.78
2018-02-21T06:28:04.930Z,57.62
2018-02-21T06:28:36.582Z,57.60
2018-02-21T06:29:08.238Z,57.66
2018-02-21T06:29:39.894Z,57.69
2018-02-21T06:30:11.548Z,57.64
2018-02-21T06:30:43.201Z,57.75
2018-02-21T06:31:14.853Z,57.76
2018-02-21T06:31:46.507Z,57.92
2018-02-21T06:32:18.214Z,57.87
2018-02-21T06:32:49.878Z,57.79
2018-02-21T06:33:21.529Z,57.79
2018-02-21T06:33:53.182Z,57.86
2018-02-21T06:34:24.834Z,57.93
2018-02-21T06:34:56.486Z,58.09
2018-02-21T06:35:28.150Z,58.13
2018-02-21T06:35:59.806Z,57.99
2018-02-21T06:36:31.461Z,58.34
2018-02-21T06:37:03.114Z,58.35
2018-02-21T06:37:34.817Z,58.32
2018-02-21T06:38:06.470Z,58.64
2018-02-21T06:38:38.182Z,58.44
2018-02-21T06:39:09.835Z,58.49
2018-02-21T06:39:41.491Z,58.39
2018-02-21T06:40:13.147Z,58.45
2018-02-21T06:40:44.799Z,58.27
2018-02-21T06:41:16.450Z,58.14
2018-02-21T06:41:48.107Z,58.09
2018-02-21T06:42:19.758Z,58.07
2018-02-21T06:42:51.466Z,58.11
2018-02-21T06:43:23.170Z,58.22
2018-02-21T06:43:54.815Z,58.10
2018-02-21T06:44:26.470Z,58.15
2018-02-21T06:44:58.130Z,58.30
2018-02-21T06:45:29.786Z,58.36
2018-02-21T06:46:01.438Z,58.53
2018-02-21T06:46:33.089Z,58.30
2018-02-21T06:47:04.742Z,58.36
2018-02-21T06:47:36.399Z,58.46
2018-02-21T06:48:08.102Z,58.33
2018-02-21T06:48:39.758Z,58.42
2018-02-21T06:49:11.520Z,58.38